Time;durP1;ratioP1;P1;durP2;ratioP2;P2;SDS_P1;SDS_P2;PMS_P1;PMS_P2;Temp;Humidity;BMP_temperature;BMP_pressure;BME280_temperature;BME280_humidity;BME280_pressure;Samples;Min_cycle;Max_cycle;Signal;HPM_P1;HPM_P2
2022/01/16 00:04:16;;;;;;;17.02;8.32;;;;;;;-5.56;89.24;91558.81;5112117;28;20132;-59
2022/01/16 00:06:45;;;;;;;10.52;5.03;;;;;;;-5.58;88.92;91556.44;5112126;28;20410;-59
2022/01/16 00:09:12;;;;;;;6.57;3.67;;;;;;;-5.56;87.40;91548.47;5111935;28;20028;-59
2022/01/16 00:11:38;;;;;;;5.40;3.38;;;;;;;-5.59;87.05;91535.91;5112002;28;20051;-58
2022/01/16 00:14:04;;;;;;;6.57;3.97;;;;;;;-5.65;87.65;91539.28;5111985;28;20058;-59
2022/01/16 00:16:30;;;;;;;5.00;3.42;;;;;;;-5.79;88.65;91547.03;5111946;28;20042;-58
2022/01/16 00:18:57;;;;;;;6.93;3.95;;;;;;;-5.77;89.38;91568.38;5111715;28;20016;-58
2022/01/16 00:21:27;;;;;;;7.90;3.60;;;;;;;-5.82;89.84;91575.94;5111832;28;20023;-59
2022/01/16 00:23:53;;;;;;;8.65;4.38;;;;;;;-5.76;89.96;91606.22;5111154;28;20028;-59
2022/01/16 00:26:20;;;;;;;7.80;3.53;;;;;;;-5.74;90.37;91621.59;5112075;28;20051;-59
2022/01/16 00:28:47;;;;;;;6.32;3.72;;;;;;;-5.78;90.77;91639.31;5111603;28;20022;-59
2022/01/16 00:31:13;;;;;;;7.28;4.03;;;;;;;-5.74;90.73;91681.19;5111719;28;20505;-58
2022/01/16 00:33:42;;;;;;;9.93;4.80;;;;;;;-5.78;90.43;91612.59;5111714;28;20051;-59
2022/01/16 00:36:08;;;;;;;10.77;5.10;;;;;;;-5.80;91.06;91542.84;5111626;28;20023;-59
2022/01/16 00:38:34;;;;;;;25.10;10.10;;;;;;;-5.88;91.30;91565.53;5111535;28;20024;-59
2022/01/16 00:41:00;;;;;;;14.07;6.53;;;;;;;-5.85;91.06;91554.78;5111590;28;20107;-59
2022/01/16 00:43:25;;;;;;;12.98;6.90;;;;;;;-5.87;90.79;91479.84;5111661;28;20110;-58
2022/01/16 00:45:51;;;;;;;16.73;8.60;;;;;;;-5.94;90.83;91463.53;5111602;28;20031;-59
2022/01/16 00:48:16;;;;;;;13.88;6.25;;;;;;;-5.95;90.71;91466.31;5111604;28;20024;-59
2022/01/16 00:50:42;;;;;;;14.40;6.97;;;;;;;-6.03;90.69;91408.53;5111466;28;20019;-59
2022/01/16 00:53:08;;;;;;;10.27;4.80;;;;;;;-5.99;90.71;91447.00;5099112;28;20044;-59
2022/01/16 00:55:33;;;;;;;11.48;4.78;;;;;;;-5.91;89.75;91460.56;5091147;28;20402;-59
2022/01/16 00:57:59;;;;;;;10.63;4.32;;;;;;;-5.94;89.56;91427.28;5091094;28;20028;-59
2022/01/16 01:00:25;;;;;;;11.15;4.32;;;;;;;-5.95;89.37;91477.50;5091219;28;20085;-57
2022/01/16 01:02:54;;;;;;;11.63;5.28;;;;;;;-5.98;89.12;91508.97;5090967;28;20636;-58
2022/01/16 01:05:19;;;;;;;9.55;3.92;;;;;;;-6.12;88.94;91515.91;5091251;28;20051;-59
2022/01/16 01:07:45;;;;;;;5.78;3.17;;;;;;;-6.15;89.13;91533.63;5090959;28;20140;-58
2022/01/16 01:10:11;;;;;;;9.43;4.75;;;;;;;-6.26;89.00;91508.28;5090917;28;20024;-59
2022/01/16 01:12:53;;;;;;;11.50;5.50;;;;;;;-6.38;89.75;91545.06;5091121;28;20039;-58
2022/01/16 01:15:22;;;;;;;9.77;3.88;;;;;;;-6.50;90.37;91536.25;5091184;28;20402;-59
2022/01/16 01:17:49;;;;;;;7.28;3.35;;;;;;;-6.52;91.26;91522.69;5090973;28;20036;-59
2022/01/16 01:20:18;;;;;;;7.47;3.55;;;;;;;-6.51;91.61;91541.63;5090662;28;20157;-59
2022/01/16 01:22:46;;;;;;;10.27;4.40;;;;;;;-6.52;91.13;91502.00;5090759;28;20512;-58
2022/01/16 01:25:13;;;;;;;6.22;3.50;;;;;;;-6.54;90.71;91522.09;5090805;28;20028;-58
2022/01/16 01:27:41;;;;;;;6.88;3.67;;;;;;;-6.57;89.65;91538.00;5091167;28;20032;-57
2022/01/16 01:30:09;;;;;;;11.70;4.82;;;;;;;-6.61;89.99;91546.34;5090612;28;20138;-59
2022/01/16 01:32:39;;;;;;;10.55;5.05;;;;;;;-6.67;90.02;91528.00;5090840;28;20032;-58
2022/01/16 01:35:07;;;;;;;3.90;2.22;;;;;;;-6.67;89.91;91525.41;5092389;28;20016;-58
2022/01/16 01:37:34;;;;;;;8.73;3.20;;;;;;;-6.72;89.73;91532.16;5094504;28;20489;-58
2022/01/16 01:40:00;;;;;;;9.25;4.25;;;;;;;-6.89;90.20;91538.63;5094180;28;20035;-58
2022/01/16 01:42:34;;;;;;;6.22;3.80;;;;;;;-7.10;92.50;91563.56;5094463;28;20036;-58
2022/01/16 01:53:16;;;;;;;11.13;5.18;;;;;;;-7.13;100.00;91565.69;5094139;28;20059;-58
2022/01/16 01:55:44;;;;;;;9.10;4.25;;;;;;;-7.07;100.00;91560.59;5094405;28;20022;-58
2022/01/16 01:58:11;;;;;;;10.95;5.18;;;;;;;-7.12;100.00;91573.25;5094111;28;20064;-59
2022/01/16 02:00:37;;;;;;;11.98;6.30;;;;;;;-7.11;100.00;91555.97;5093908;28;20024;-58
2022/01/16 02:05:31;;;;;;;16.88;6.75;;;;;;;-7.08;100.00;91584.84;5094055;28;20382;-59
2022/01/16 02:07:57;;;;;;;7.20;3.95;;;;;;;-6.99;100.00;91567.41;5093865;28;20088;-58
2022/01/16 02:10:23;;;;;;;9.18;3.35;;;;;;;-6.83;98.14;91581.81;5093864;28;20082;-57
2022/01/16 02:12:55;;;;;;;7.18;3.15;;;;;;;-6.84;94.00;91575.06;5093750;28;20032;-57
2022/01/16 02:31:45;;;;;;;6.35;3.10;;;;;;;-7.18;93.29;91561.09;5093651;28;20024;-59
2022/01/16 02:36:59;;;;;;;6.78;4.05;;;;;;;-7.22;94.11;91549.53;5093319;28;20488;-59
2022/01/16 02:39:26;;;;;;;7.13;4.00;;;;;;;-7.23;94.15;91550.53;5093047;28;20489;-59
2022/01/16 02:41:53;;;;;;;4.82;3.03;;;;;;;-7.19;93.18;91543.19;5093088;28;20055;-58
2022/01/16 02:46:45;;;;;;;9.68;4.97;;;;;;;-7.11;92.01;91530.91;5092578;28;20028;-58
2022/01/16 02:49:28;;;;;;;7.25;3.83;;;;;;;-7.10;91.40;91527.38;5093223;28;20042;-58
2022/01/16 02:51:58;;;;;;;;;;;;;;;-7.15;92.00;91527.13;5071744;28;20135;-59
2022/01/16 02:54:26;;;;;;;6.03;3.50;;;;;;;-7.25;93.09;91526.66;5072818;28;19916;-58
2022/01/16 02:56:52;;;;;;;7.50;3.47;;;;;;;-7.30;94.11;91526.41;5073013;28;20029;-58
2022/01/16 02:59:18;;;;;;;7.80;4.40;;;;;;;-7.33;94.47;91527.59;5072642;28;20379;-57
2022/01/16 03:01:45;;;;;;;8.80;3.67;;;;;;;-7.35;95.27;91526.19;5072896;28;20413;-58
2022/01/16 03:06:42;;;;;;;6.97;4.00;;;;;;;-7.35;94.61;91514.06;5110529;28;20458;-59
2022/01/16 03:09:09;;;;;;;6.75;3.42;;;;;;;-7.30;94.44;91524.63;5113232;28;20016;-59
2022/01/16 03:11:39;;;;;;;7.70;4.18;;;;;;;-7.33;93.80;91508.69;5113142;28;20068;-59
2022/01/16 03:14:08;;;;;;;7.47;3.63;;;;;;;-7.29;94.20;91510.72;5113327;28;20076;-59
2022/01/16 03:16:34;;;;;;;11.65;4.88;;;;;;;-7.30;93.59;91513.47;5112848;28;20103;-59
2022/01/16 03:21:54;;;;;;;9.77;4.40;;;;;;;-7.38;92.68;91514.44;5113115;28;20038;-59
2022/01/16 03:24:25;;;;;;;12.07;5.75;;;;;;;-7.35;91.60;91521.00;5112613;28;20420;-59
2022/01/16 03:26:53;;;;;;;9.93;4.88;;;;;;;-7.47;91.97;91527.66;5113091;28;20121;-59
2022/01/16 03:29:18;;;;;;;8.15;4.20;;;;;;;-7.51;92.91;91522.09;5112825;28;20065;-59
2022/01/16 03:31:44;;;;;;;11.30;4.55;;;;;;;-7.50;92.93;91535.78;5112769;28;20024;-59
2022/01/16 03:34:09;;;;;;;12.90;5.57;;;;;;;-7.53;93.22;91531.00;5112522;28;20042;-59
2022/01/16 03:36:35;;;;;;;30.02;10.60;;;;;;;-7.49;93.32;91527.06;5112618;28;20042;-59
2022/01/16 03:39:00;;;;;;;24.55;9.68;;;;;;;-7.47;93.55;91528.47;5112577;28;20493;-58
2022/01/16 03:41:27;;;;;;;36.53;13.48;;;;;;;-7.47;93.62;91533.63;5112574;28;20023;-59
2022/01/16 03:43:55;;;;;;;24.77;9.77;;;;;;;-7.42;93.24;91535.66;5112793;28;20032;-58
2022/01/16 03:46:21;;;;;;;22.50;9.45;;;;;;;-7.35;92.47;91544.28;5112335;28;20024;-59
2022/01/16 03:48:46;;;;;;;21.65;9.32;;;;;;;-7.35;91.84;91536.50;5112393;28;20076;-59
2022/01/16 03:51:12;;;;;;;14.07;6.55;;;;;;;-7.29;91.50;91546.09;5112405;28;20046;-59
2022/01/16 03:53:37;;;;;;;13.88;5.18;;;;;;;-7.20;89.09;91539.81;5112351;28;20032;-59
2022/01/16 03:56:03;;;;;;;20.02;7.80;;;;;;;-7.24;87.91;91533.44;5112184;28;20080;-59
2022/01/16 03:58:28;;;;;;;16.33;6.80;;;;;;;-7.28;88.23;91545.09;5112208;28;20035;-59
2022/01/16 04:00:54;;;;;;;10.60;5.40;;;;;;;-7.27;88.73;91550.09;5112136;28;20024;-59
2022/01/16 04:03:19;;;;;;;12.38;4.50;;;;;;;-7.20;87.75;91544.97;5112182;28;20474;-59
2022/01/16 04:05:45;;;;;;;5.57;2.58;;;;;;;-7.20;86.50;91539.00;5111813;28;20051;-59
2022/01/16 04:08:10;;;;;;;3.60;2.05;;;;;;;-7.19;84.94;91551.75;5112038;28;20098;-59
2022/01/16 04:10:36;;;;;;;4.10;2.33;;;;;;;-7.17;83.96;91549.78;5112235;28;20026;-59
2022/01/16 04:13:03;;;;;;;4.78;2.90;;;;;;;-7.22;83.70;91541.78;5112041;28;20024;-59
2022/01/16 04:15:32;;;;;;;4.75;2.60;;;;;;;-7.15;83.64;91558.13;5111910;28;20035;-58
2022/01/16 04:17:59;;;;;;;7.03;3.28;;;;;;;-7.06;82.53;91559.59;5111975;27;20019;-59
2022/01/16 04:20:24;;;;;;;11.38;3.80;;;;;;;-7.15;82.40;91552.97;5111790;28;20027;-59
2022/01/16 04:22:50;;;;;;;12.60;5.13;;;;;;;-7.27;83.42;91554.47;5111833;28;20035;-59
2022/01/16 04:25:18;;;;;;;8.02;4.32;;;;;;;-7.37;84.19;91554.78;5111709;28;20031;-59
2022/01/16 04:27:43;;;;;;;7.55;3.92;;;;;;;-7.45;84.90;91554.91;5112113;28;20031;-59
2022/01/16 04:30:09;;;;;;;8.30;4.53;;;;;;;-7.57;85.85;91549.47;5111666;28;20028;-59
2022/01/16 04:32:35;;;;;;;13.02;5.22;;;;;;;-7.61;86.59;91557.75;5111589;28;20023;-59
2022/01/16 04:35:00;;;;;;;6.50;3.13;;;;;;;-7.62;87.01;91569.06;5110219;28;20039;-59
2022/01/16 04:37:26;;;;;;;8.85;2.95;;;;;;;-7.66;85.92;91565.25;5111898;28;20051;-59
2022/01/16 04:39:58;;;;;;;6.93;3.42;;;;;;;-7.89;87.74;91568.00;5110353;28;20020;-59
2022/01/16 04:45:08;;;;;;;4.80;3.30;;;;;;;-8.16;92.10;91559.22;5111772;28;20092;-59
2022/01/16 04:47:34;;;;;;;11.48;5.78;;;;;;;-8.23;94.60;91569.44;5111546;28;20408;-59
2022/01/16 04:49:59;;;;;;;14.57;7.05;;;;;;;-8.34;97.82;91572.53;5111760;28;20431;-59
2022/01/16 04:52:25;;;;;;;24.75;10.02;;;;;;;-8.41;100.00;91571.63;5111422;28;20083;-59
2022/01/16 04:54:50;;;;;;;17.90;8.05;;;;;;;-8.53;100.00;91567.91;5111388;28;20122;-59
2022/01/16 04:57:16;;;;;;;18.65;9.07;;;;;;;-8.53;100.00;91573.88;5111473;28;20031;-60
2022/01/16 04:59:42;;;;;;;32.78;12.52;;;;;;;-8.57;100.00;91566.69;5111354;28;20027;-60
2022/01/16 05:02:08;;;;;;;23.52;10.13;;;;;;;-8.57;100.00;91572.63;5111339;28;20027;-60
2022/01/16 05:04:33;;;;;;;25.20;10.75;;;;;;;-8.65;100.00;91571.94;5111113;28;20096;-60
2022/01/16 05:06:59;;;;;;;18.27;9.30;;;;;;;-8.60;100.00;91569.63;5111415;28;20038;-60
2022/01/16 05:09:24;;;;;;;17.98;8.50;;;;;;;-8.58;100.00;91571.03;5112241;28;20477;-60
2022/01/16 05:11:56;;;;;;;19.30;9.02;;;;;;;-8.68;100.00;91561.97;5115408;28;20541;-59
2022/01/16 05:17:06;;;;;;;23.20;11.20;;;;;;;-8.82;100.00;91561.00;5115361;28;20446;-60
2022/01/16 05:19:32;;;;;;;25.42;12.15;;;;;;;-8.82;100.00;91569.53;5115245;28;20027;-60
2022/01/16 05:21:57;;;;;;;33.70;15.40;;;;;;;-8.80;100.00;91564.22;5115356;27;20031;-59
2022/01/16 05:24:25;;;;;;;25.98;12.52;;;;;;;-8.77;100.00;91564.66;5115079;28;20031;-60
2022/01/16 05:26:50;;;;;;;44.53;18.05;;;;;;;-8.76;100.00;91562.88;5115188;28;20032;-60
2022/01/16 05:29:16;;;;;;;47.65;20.08;;;;;;;-8.76;100.00;91568.03;5115190;28;20035;-59
2022/01/16 05:31:44;;;;;;;30.95;15.05;;;;;;;-8.79;100.00;91563.22;5115137;27;20480;-60
2022/01/16 05:34:12;;;;;;;39.22;17.65;;;;;;;-8.77;100.00;91579.31;5115279;28;20031;-60
2022/01/16 05:36:37;;;;;;;90.57;31.50;;;;;;;-8.72;100.00;91564.09;5114999;28;20053;-59
2022/01/16 05:39:03;;;;;;;64.35;27.42;;;;;;;-8.63;100.00;91565.63;5114939;28;20031;-59
2022/01/16 05:41:28;;;;;;;43.88;20.20;;;;;;;-8.51;100.00;91571.13;5113648;28;20031;-60
2022/01/16 05:43:54;;;;;;;45.20;19.08;;;;;;;-8.46;100.00;91558.50;5114699;28;20034;-60
2022/01/16 05:46:19;;;;;;;94.03;34.45;;;;;;;-8.38;100.00;91567.91;5114673;28;20524;-59
2022/01/16 05:48:45;;;;;;;222.93;73.47;;;;;;;-8.36;100.00;91571.91;5114767;28;20031;-60
2022/01/16 05:51:10;;;;;;;26.15;12.02;;;;;;;-8.34;100.00;91582.84;5113954;28;20027;-60
2022/01/16 05:53:37;;;;;;;28.60;12.68;;;;;;;-8.37;100.00;91580.59;5114795;28;20092;-60
2022/01/16 05:56:03;;;;;;;29.58;14.63;;;;;;;-8.40;100.00;91578.41;5114655;28;20054;-60
2022/01/16 05:58:29;;;;;;;14.85;8.18;;;;;;;-8.39;100.00;91581.78;5114525;28;20027;-60
2022/01/16 06:00:54;;;;;;;15.05;7.57;;;;;;;-8.37;100.00;91582.41;5114451;28;20028;-60
2022/01/16 06:03:21;;;;;;;52.20;22.38;;;;;;;-8.40;100.00;91586.13;5114503;28;20051;-60
2022/01/16 06:05:47;;;;;;;62.00;28.20;;;;;;;-8.45;100.00;91580.72;5114056;28;20043;-60
2022/01/16 06:08:14;;;;;;;47.33;22.23;;;;;;;-8.39;100.00;91571.44;5114371;28;20030;-59
2022/01/16 06:10:39;;;;;;;73.05;29.80;;;;;;;-8.46;100.00;91573.97;5114571;28;20105;-59
2022/01/16 06:13:05;;;;;;;34.22;15.57;;;;;;;-8.55;100.00;91581.00;5114236;28;20503;-59
2022/01/16 06:15:32;;;;;;;26.70;12.48;;;;;;;-8.61;100.00;91591.22;5114233;28;20035;-59
2022/01/16 06:17:58;;;;;;;54.30;22.38;;;;;;;-8.59;100.00;91595.22;5114191;28;20054;-60
2022/01/16 06:20:23;;;;;;;49.15;21.58;;;;;;;-8.55;100.00;91587.94;5113762;28;20066;-59
2022/01/16 06:22:49;;;;;;;54.30;25.05;;;;;;;-8.55;100.00;91590.50;5113191;28;20043;-59
2022/01/16 06:25:15;;;;;;;50.13;23.80;;;;;;;-8.55;100.00;91599.03;5113840;28;20032;-59
2022/01/16 06:27:41;;;;;;;56.22;25.38;;;;;;;-8.40;100.00;91604.19;5113799;28;20031;-59
2022/01/16 06:30:09;;;;;;;57.63;24.90;;;;;;;-8.34;100.00;91603.50;5113862;28;20020;-59
2022/01/16 06:32:35;;;;;;;61.38;27.95;;;;;;;-8.39;100.00;91600.63;5113858;28;20019;-62
2022/01/16 06:35:00;;;;;;;56.13;25.38;;;;;;;-8.25;100.00;91609.31;5113945;28;20088;-60
2022/01/16 06:37:26;;;;;;;56.58;28.05;;;;;;;-8.05;100.00;91602.59;5113856;28;20031;-60
2022/01/16 06:39:52;;;;;;;60.47;25.73;;;;;;;-7.96;100.00;91617.00;5113968;28;20032;-60
2022/01/16 06:42:17;;;;;;;65.10;27.65;;;;;;;-7.81;100.00;91601.47;5113939;28;20028;-61
2022/01/16 06:44:43;;;;;;;93.82;37.42;;;;;;;-7.67;100.00;91603.22;5113609;28;20027;-60
2022/01/16 06:47:09;;;;;;;126.50;49.03;;;;;;;-7.58;100.00;91602.09;5113661;28;20408;-60
2022/01/16 06:49:35;;;;;;;59.95;28.45;;;;;;;-7.35;100.00;91607.09;5113649;28;20023;-60
2022/01/16 06:52:01;;;;;;;66.50;30.20;;;;;;;-7.23;100.00;91602.22;5095594;28;20028;-61
2022/01/16 06:54:26;;;;;;;50.22;23.60;;;;;;;-7.11;99.15;91605.88;5092722;28;20503;-61
2022/01/16 06:56:52;;;;;;;58.95;26.92;;;;;;;-6.97;96.04;91606.78;5091316;28;20028;-61
2022/01/16 06:59:17;;;;;;;85.45;36.53;;;;;;;-6.83;94.20;91607.69;5093530;28;20028;-61
2022/01/16 07:01:43;;;;;;;53.03;26.08;;;;;;;-6.81;97.80;91613.47;5092699;28;20020;-62
2022/01/16 07:04:08;;;;;;;42.20;18.70;;;;;;;-6.63;96.43;91616.38;5092693;28;20035;-61
2022/01/16 07:06:34;;;;;;;31.40;14.40;;;;;;;-6.37;88.43;91626.09;5092573;28;20056;-61
2022/01/16 07:08:59;;;;;;;35.20;15.80;;;;;;;-6.02;82.67;91624.28;5092714;28;20063;-61
2022/01/16 07:11:25;;;;;;;66.57;31.17;;;;;;;-5.95;79.71;91627.72;5092143;28;20488;-61
2022/01/16 07:13:50;;;;;;;37.58;20.17;;;;;;;-5.71;79.11;91628.97;5092307;28;20020;-61
2022/01/16 07:16:16;;;;;;;24.58;12.95;;;;;;;-4.34;75.45;91629.31;5092409;28;20111;-61
2022/01/16 07:18:41;;;;;;;21.33;11.35;;;;;;;-1.98;67.03;91632.56;5097043;28;20057;-61
2022/01/16 07:21:13;;;;;;;21.83;11.85;;;;;;;-0.27;59.25;91623.50;5107502;28;20046;-60
2022/01/16 07:24:02;;;;;;;19.75;10.85;;;;;;;1.30;53.81;91612.81;5112039;28;20028;-61
2022/01/16 07:26:27;;;;;;;26.52;18.08;;;;;;;1.17;52.85;91620.97;5110884;28;20027;-60
2022/01/16 07:28:53;;;;;;;38.80;23.65;;;;;;;2.86;49.88;91615.38;5112468;28;20104;-59
2022/01/16 07:31:18;;;;;;;18.80;10.45;;;;;;;5.80;43.93;91622.84;5111857;28;20446;-61
2022/01/16 07:33:47;;;;;;;28.73;18.50;;;;;;;7.48;40.54;91623.38;5111353;28;20084;-60
2022/01/16 07:36:13;;;;;;;15.98;10.00;;;;;;;8.34;37.52;91622.06;5111891;28;20485;-60
2022/01/16 07:38:38;;;;;;;18.08;10.48;;;;;;;9.95;35.50;91625.91;5112138;27;20161;-60
2022/01/16 07:41:04;;;;;;;27.55;18.70;;;;;;;11.02;33.67;91634.88;5110769;28;20047;-61
2022/01/16 07:43:29;;;;;;;20.40;12.90;;;;;;;11.20;33.36;91625.22;5111615;27;20032;-60
2022/01/16 07:45:55;;;;;;;31.42;19.70;;;;;;;12.57;31.26;91630.38;5111485;28;20132;-62
2022/01/16 07:48:20;;;;;;;50.75;31.88;;;;;;;13.24;30.87;91632.22;5111196;28;20176;-61
2022/01/16 07:50:46;;;;;;;49.05;31.00;;;;;;;13.39;30.73;91637.97;5111896;28;20028;-65
2022/01/16 07:53:12;;;;;;;75.15;44.33;;;;;;;9.33;35.00;91646.34;5111733;28;20032;-67
2022/01/16 07:55:37;;;;;;;39.13;23.58;;;;;;;5.74;39.65;91647.66;5110301;28;20026;-65
2022/01/16 07:58:04;;;;;;;40.08;22.65;;;;;;;6.40;39.79;91648.53;5111926;28;20031;-65
2022/01/16 08:00:30;;;;;;;36.03;21.42;;;;;;;8.75;36.79;91645.59;5111477;28;20451;-61
2022/01/16 08:02:57;;;;;;;44.97;25.48;;;;;;;11.24;33.72;91648.34;5111250;28;20524;-62
2022/01/16 08:05:23;;;;;;;39.72;23.00;;;;;;;14.10;30.81;91645.91;5111351;28;20078;-63
2022/01/16 08:07:49;;;;;;;33.13;19.58;;;;;;;16.19;28.27;91642.56;5111014;28;20051;-63
2022/01/16 08:10:14;;;;;;;33.25;18.67;;;;;;;15.07;28.69;91640.28;5110550;28;20421;-63
2022/01/16 08:12:40;;;;;;;20.20;13.10;;;;;;;15.84;27.96;91637.41;5111863;28;20028;-62
2022/01/16 08:15:08;;;;;;;18.55;12.80;;;;;;;15.12;28.53;91634.75;5111346;28;20038;-63
2022/01/16 08:17:36;;;;;;;17.77;10.90;;;;;;;14.81;28.84;91637.63;5111051;27;20024;-62
2022/01/16 08:20:07;;;;;;;16.10;10.15;;;;;;;14.66;29.79;91639.69;5110832;28;20032;-62
2022/01/16 08:22:33;;;;;;;15.57;10.85;;;;;;;15.49;28.11;91649.34;5111261;28;20020;-62
2022/01/16 08:24:58;;;;;;;15.82;11.00;;;;;;;14.59;29.01;91655.44;5109795;28;20027;-63
2022/01/16 08:27:24;;;;;;;16.80;11.25;;;;;;;15.88;27.98;91654.41;5110486;28;20118;-63
2022/01/16 08:29:49;;;;;;;8.90;6.30;;;;;;;16.06;28.03;91644.38;5111706;28;20066;-63
2022/01/16 08:32:16;;;;;;;6.03;4.75;;;;;;;15.71;28.26;91637.63;5111719;28;20038;-64
2022/01/16 08:34:42;;;;;;;5.97;5.10;;;;;;;16.46;27.71;91644.00;5111571;28;20058;-64
2022/01/16 08:37:08;;;;;;;9.45;5.90;;;;;;;16.46;27.72;91636.72;5111712;28;20024;-64
2022/01/16 08:39:33;;;;;;;6.85;4.18;;;;;;;15.90;28.05;91639.88;5111627;28;20032;-64
2022/01/16 08:41:59;;;;;;;6.53;5.50;;;;;;;14.67;29.92;91638.59;5111755;28;20028;-64
2022/01/16 08:44:24;;;;;;;9.07;6.10;;;;;;;12.77;32.50;91629.88;5110900;28;20074;-64
2022/01/16 08:46:51;;;;;;;11.45;7.80;;;;;;;13.62;31.35;91629.91;5111845;28;20142;-63
2022/01/16 08:49:17;;;;;;;8.73;6.70;;;;;;;15.50;28.93;91640.19;5111558;28;20493;-64
2022/01/16 08:51:42;;;;;;;11.02;7.90;;;;;;;16.33;28.58;91645.81;5111599;28;20106;-64
2022/01/16 08:54:08;;;;;;;9.98;7.90;;;;;;;16.42;27.99;91627.75;5111430;28;20160;-64
2022/01/16 08:56:34;;;;;;;67.32;41.95;;;;;;;15.80;30.26;91631.09;5111384;28;20519;-64
2022/01/16 08:58:59;;;;;;;175.30;110.45;;;;;;;16.69;28.80;91629.16;5111334;28;20416;-64
2022/01/16 09:01:25;;;;;;;7.95;5.70;;;;;;;13.78;30.66;91631.84;5111292;28;20035;-63
2022/01/16 09:03:51;;;;;;;8.23;5.80;;;;;;;12.20;33.09;91626.16;5109991;28;20028;-64
2022/01/16 09:06:17;;;;;;;41.13;19.05;;;;;;;13.06;32.78;91626.78;5111068;28;20047;-63
2022/01/16 09:08:43;;;;;;;52.35;24.92;;;;;;;14.08;31.54;91611.44;5111380;28;20034;-63
2022/01/16 09:11:08;;;;;;;37.75;18.80;;;;;;;14.66;30.84;91612.91;5111261;28;20028;-64
2022/01/16 09:13:34;;;;;;;27.55;14.93;;;;;;;13.04;32.35;91610.25;5111352;28;20031;-64
2022/01/16 09:16:00;;;;;;;56.08;32.13;;;;;;;13.56;32.48;91612.41;5111332;28;20039;-63
2022/01/16 09:18:26;;;;;;;100.45;46.03;;;;;;;10.87;35.08;91606.63;5111149;28;20084;-63
2022/01/16 09:20:53;;;;;;;15.98;10.10;;;;;;;9.99;36.92;91616.28;5111122;28;20028;-63
2022/01/16 09:23:20;;;;;;;16.55;9.75;;;;;;;11.25;35.42;91612.63;5111141;28;20507;-64
2022/01/16 09:25:46;;;;;;;16.38;10.32;;;;;;;12.38;34.12;91603.09;5110990;28;20036;-64
2022/01/16 09:28:11;;;;;;;23.48;14.38;;;;;;;12.84;33.18;91594.75;5111141;28;20035;-64
2022/01/16 09:30:37;;;;;;;24.13;14.88;;;;;;;12.11;34.88;91588.75;5111095;28;20493;-63
2022/01/16 09:33:03;;;;;;;47.08;27.88;;;;;;;13.42;32.81;91588.47;5111041;28;20031;-64
2022/01/16 09:35:33;;;;;;;29.25;16.52;;;;;;;16.50;30.40;91593.09;5110961;28;20023;-64
2022/01/16 09:37:59;;;;;;;21.38;11.45;;;;;;;16.95;28.92;91587.84;5110880;28;20434;-62
2022/01/16 09:40:25;;;;;;;14.63;9.38;;;;;;;14.54;30.98;91588.69;5110831;28;20423;-63
2022/01/16 09:42:52;;;;;;;14.63;9.07;;;;;;;15.13;31.27;91578.16;5110914;28;20065;-63
2022/01/16 09:45:18;;;;;;;28.42;12.20;;;;;;;16.88;29.41;91574.91;5110745;28;20477;-63
2022/01/16 09:47:46;;;;;;;21.52;12.43;;;;;;;17.90;27.45;91573.34;5111136;28;20028;-63
2022/01/16 09:50:14;;;;;;;20.77;14.13;;;;;;;17.36;28.85;91568.13;5111296;28;20024;-64
2022/01/16 09:52:43;;;;;;;11.48;7.22;;;;;;;14.17;31.27;91568.63;5111142;28;20046;-63
2022/01/16 09:55:10;;;;;;;15.77;9.50;;;;;;;11.72;35.53;91560.00;5110988;28;20035;-63
2022/01/16 09:57:36;;;;;;;8.60;6.72;;;;;;;14.08;32.53;91568.63;5114359;28;20035;-63
2022/01/16 10:00:04;;;;;;;11.55;5.32;;;;;;;16.15;29.49;91572.66;5114311;28;20035;-63
2022/01/16 10:02:29;;;;;;;11.93;6.88;;;;;;;14.63;31.16;91575.25;5114246;28;20024;-63
2022/01/16 10:04:55;;;;;;;34.13;22.40;;;;;;;16.90;30.73;91574.63;5114060;28;20069;-63
2022/01/16 10:07:20;;;;;;;43.90;30.15;;;;;;;15.69;31.42;91570.09;5113227;28;20399;-63
2022/01/16 10:10:12;;;;;;;34.15;22.92;;;;;;;15.88;30.30;91565.88;5113915;28;20026;-63
2022/01/16 10:12:46;;;;;;;41.35;28.98;;;;;;;17.27;29.37;91567.41;5105920;28;20039;-63
2022/01/16 10:15:30;;;;;;;11.93;7.60;;;;;;;17.54;28.80;91561.41;5112929;28;20106;-63
2022/01/16 10:17:58;;;;;;;17.40;11.02;;;;;;;17.63;28.19;91559.38;5102628;28;20122;-63
2022/01/16 10:20:25;;;;;;;9.52;6.40;;;;;;;17.28;28.47;91561.72;5113894;28;20481;-64
2022/01/16 10:22:59;;;;;;;12.48;8.23;;;;;;;17.19;28.78;91549.47;5112463;28;20510;-65
2022/01/16 10:25:47;;;;;;;11.65;7.25;;;;;;;17.81;28.12;91551.91;5113503;28;20507;-64
2022/01/16 10:28:24;;;;;;;7.38;5.82;;;;;;;15.75;30.04;91547.31;5114145;28;20027;-64
2022/01/16 10:30:55;;;;;;;6.55;4.63;;;;;;;16.13;29.59;91552.63;5113828;28;20089;-64
2022/01/16 10:33:24;;;;;;;12.02;6.53;;;;;;;17.29;29.14;91543.66;5112203;28;20110;-64
2022/01/16 10:35:52;;;;;;;12.38;8.07;;;;;;;15.81;29.98;91544.16;5112766;28;20124;-64
2022/01/16 10:38:20;;;;;;;9.00;5.20;;;;;;;17.25;28.69;91534.72;5112196;28;20133;-64
2022/01/16 10:40:50;;;;;;;12.95;9.68;;;;;;;17.62;27.61;91530.13;5112932;28;20440;-64
2022/01/16 10:43:21;;;;;;;10.90;8.20;;;;;;;18.10;26.92;91529.34;5113059;28;20651;-65
2022/01/16 10:45:51;;;;;;;10.02;5.88;;;;;;;16.04;28.82;91530.41;5113335;28;20437;-65
2022/01/16 10:48:23;;;;;;;12.25;7.63;;;;;;;16.58;28.32;91520.50;5112610;28;20027;-64
2022/01/16 10:50:51;;;;;;;9.10;6.50;;;;;;;15.96;28.98;91526.69;5108831;28;20032;-64
2022/01/16 10:53:22;;;;;;;8.65;5.75;;;;;;;15.06;29.98;91528.84;5113037;28;20066;-64
2022/01/16 10:55:51;;;;;;;11.65;7.50;;;;;;;16.17;30.68;91521.31;5111728;28;20035;-64
2022/01/16 10:58:18;;;;;;;133.68;76.85;;;;;;;16.67;29.34;91523.91;5113034;28;20034;-64
2022/01/16 11:00:52;;;;;;;29.20;20.00;;;;;;;19.04;27.65;91520.06;5112799;28;20038;-62
2022/01/16 11:03:18;;;;;;;5.93;4.22;;;;;;;16.71;27.49;91500.63;5113306;28;20027;-63
2022/01/16 11:05:46;;;;;;;9.10;6.93;;;;;;;18.16;27.50;91508.34;5112991;28;20074;-62
2022/01/16 11:08:15;;;;;;;10.55;7.57;;;;;;;14.60;31.50;91509.75;5112585;28;20035;-63
2022/01/16 11:10:46;;;;;;;13.00;9.73;;;;;;;16.81;27.95;91496.75;5111787;28;20031;-64
2022/01/16 11:13:14;;;;;;;13.07;10.05;;;;;;;16.07;29.17;91497.53;5113115;28;20042;-64
2022/01/16 11:15:48;;;;;;;8.93;7.53;;;;;;;18.16;27.60;91495.69;5113000;28;20034;-64
2022/01/16 11:18:15;;;;;;;6.70;5.55;;;;;;;17.57;26.77;91496.16;5113035;28;20511;-64
2022/01/16 11:20:45;;;;;;;19.70;12.73;;;;;;;18.48;27.73;91491.19;5113032;28;20042;-64
2022/01/16 11:23:30;;;;;;;7.50;5.50;;;;;;;19.52;24.92;91491.97;5112963;28;20526;-64
2022/01/16 11:26:05;;;;;;;11.30;6.60;;;;;;;18.77;26.15;91495.47;5113179;27;20070;-64
2022/01/16 11:28:32;;;;;;;8.38;5.70;;;;;;;19.43;26.31;91497.56;5112887;28;20024;-64
2022/01/16 11:31:03;;;;;;;6.80;5.40;;;;;;;17.00;27.63;91488.94;5112773;28;20034;-64
2022/01/16 11:33:32;;;;;;;10.68;8.30;;;;;;;18.77;26.07;91492.75;5112755;28;20103;-64
2022/01/16 11:36:16;;;;;;;13.52;9.23;;;;;;;16.30;28.35;91488.06;5112733;28;20032;-64
2022/01/16 11:38:55;;;;;;;18.77;13.80;;;;;;;18.27;26.39;91491.38;5112907;28;20047;-64
2022/01/16 11:41:31;;;;;;;15.13;10.95;;;;;;;18.87;26.49;91494.19;5112598;28;20440;-64
2022/01/16 11:43:58;;;;;;;45.33;27.00;;;;;;;16.70;27.21;91479.47;5112358;28;20036;-64
2022/01/16 11:46:28;;;;;;;23.70;15.77;;;;;;;16.82;27.93;91479.50;5112463;28;20479;-64
2022/01/16 11:49:00;;;;;;;18.45;13.98;;;;;;;15.50;29.02;91480.09;5112454;28;20038;-63
2022/01/16 11:51:35;;;;;;;35.00;21.17;;;;;;;15.82;29.70;91467.91;5112423;28;20063;-63
2022/01/16 11:54:10;;;;;;;9.88;7.07;;;;;;;16.41;28.47;91473.13;5112568;28;20043;-63
2022/01/16 11:56:41;;;;;;;11.00;6.53;;;;;;;13.61;31.24;91473.25;5112367;28;20027;-63
2022/01/16 11:59:12;;;;;;;11.90;6.55;;;;;;;13.28;32.05;91476.34;5112202;28;20028;-63
2022/01/16 12:02:01;;;;;;;10.60;6.28;;;;;;;15.96;28.16;91467.66;5112212;28;20023;-63
2022/01/16 12:04:29;;;;;;;13.30;7.13;;;;;;;13.88;30.15;91470.25;5110677;28;20047;-63
2022/01/16 12:06:54;;;;;;;14.43;10.07;;;;;;;14.08;30.15;91466.19;5111280;28;20050;-62
2022/01/16 12:12:13;;;;;;;9.02;7.15;;;;;;;14.29;28.80;91461.75;5110943;28;20040;-63
2022/01/16 12:15:32;;;;;;;7.65;5.82;;;;;;;13.27;29.17;91458.75;5111578;28;20028;-62